Terminal Aerodrome Forecast
Issued by NWS Greer, SC

Home | Current Version | Previous Version | Text Only | Print | Product List | Glossary On
Versions: 1 2 3 4 5 6 7 8 9 10 11 12 13 14 15 16 17 18 19 20
156
FTUS42 KGSP 240520
TAFGSP
TAF
KGSP 240520Z 2406/2506 VRB02KT P6SM SCT250
     FM240900 VRB02KT P6SM BKN060
     FM241000 00000KT 6SM BR BKN020
     FM241100 00000KT 5SM BR BKN008
     FM241400 16003KT P6SM BKN015
     FM241500 17004KT P6SM BKN035
     FM241700 19006KT P6SM SCT050
     FM250000 17004KT P6SM FEW100 SCT250=

USA.gov is the U.S. government's official web portal to all federal, state and local government web resources and services.